createdAt,value
2023-02-19T00:00:39.045Z,5.96
2023-02-19T00:05:38.988Z,5.95
2023-02-19T00:10:38.993Z,5.90
2023-02-19T00:15:40.659Z,5.88
2023-02-19T00:20:38.913Z,5.85
2023-02-19T00:25:38.884Z,5.85
2023-02-19T00:30:38.851Z,5.83
2023-02-19T00:35:38.814Z,5.77
2023-02-19T00:40:38.798Z,5.78
2023-02-19T00:45:38.760Z,5.81
2023-02-19T00:50:38.732Z,5.80
2023-02-19T00:55:38.695Z,5.81
2023-02-19T01:00:38.673Z,5.85
2023-02-19T01:05:38.632Z,5.85
2023-02-19T01:10:38.584Z,5.85
2023-02-19T01:15:38.564Z,5.84
2023-02-19T01:20:38.517Z,5.85
2023-02-19T01:25:38.500Z,5.87
2023-02-19T01:30:38.425Z,5.84
2023-02-19T01:35:38.399Z,5.84
2023-02-19T01:40:38.374Z,5.84
2023-02-19T01:45:38.344Z,5.83
2023-02-19T01:50:38.314Z,5.77
2023-02-19T01:55:38.289Z,5.75
2023-02-19T02:00:38.289Z,5.75
2023-02-19T02:05:38.231Z,5.73
2023-02-19T02:10:38.200Z,5.75
2023-02-19T02:15:38.175Z,5.74
2023-02-19T02:20:38.164Z,5.75
2023-02-19T02:25:38.135Z,5.74
2023-02-19T02:30:38.114Z,5.67
2023-02-19T02:35:38.078Z,5.69
2023-02-19T02:40:38.041Z,5.70
2023-02-19T02:45:38.216Z,5.69
2023-02-19T02:50:37.988Z,5.70
2023-02-19T02:55:37.957Z,5.69
2023-02-19T03:00:37.926Z,5.70
2023-02-19T03:05:37.895Z,5.69
2023-02-19T03:10:37.868Z,5.73
2023-02-19T03:15:37.833Z,5.67
2023-02-19T03:20:37.801Z,5.66
2023-02-19T03:25:37.799Z,5.56
2023-02-19T03:30:37.849Z,5.42
2023-02-19T03:35:37.705Z,5.33
2023-02-19T03:40:37.680Z,5.09
2023-02-19T03:45:37.677Z,4.84
2023-02-19T03:50:37.609Z,4.62
2023-02-19T03:55:37.574Z,4.44
2023-02-19T04:00:37.534Z,4.34
2023-02-19T04:05:37.542Z,4.25
2023-02-19T04:10:37.486Z,4.17
2023-02-19T04:15:37.455Z,4.11
2023-02-19T04:20:37.436Z,4.07
2023-02-19T04:25:37.423Z,4.02
2023-02-19T04:30:37.530Z,3.98
2023-02-19T04:35:37.392Z,3.86
2023-02-19T04:40:37.332Z,3.78
2023-02-19T04:45:37.323Z,3.77
2023-02-19T04:50:37.273Z,3.53
2023-02-19T04:55:37.228Z,3.42
2023-02-19T05:00:37.195Z,3.25
2023-02-19T05:05:37.168Z,3.12
2023-02-19T05:10:37.111Z,3.04
2023-02-19T05:15:37.112Z,2.99
2023-02-19T05:20:37.032Z,2.84
2023-02-19T05:25:36.999Z,2.87
2023-02-19T05:30:36.950Z,2.80
2023-02-19T05:35:36.907Z,2.69
2023-02-19T05:40:37.196Z,2.69
2023-02-19T05:45:36.848Z,2.61
2023-02-19T05:50:39.403Z,2.55
2023-02-19T05:55:36.785Z,2.58
2023-02-19T06:00:36.738Z,2.48
2023-02-19T06:05:36.706Z,2.53
2023-02-19T06:10:36.667Z,2.48
2023-02-19T06:15:36.626Z,2.45
2023-02-19T06:20:36.616Z,2.50
2023-02-19T06:25:36.612Z,2.53
2023-02-19T06:30:36.600Z,2.62
2023-02-19T06:35:36.587Z,2.65
2023-02-19T06:40:36.569Z,2.69
2023-02-19T06:45:36.576Z,2.62
2023-02-19T06:50:36.537Z,2.63
2023-02-19T06:55:36.492Z,2.63
2023-02-19T07:00:36.474Z,2.73
2023-02-19T07:05:36.396Z,2.74
2023-02-19T07:10:36.342Z,2.81
2023-02-19T07:15:36.296Z,2.80
2023-02-19T07:20:36.254Z,2.90
2023-02-19T07:25:36.250Z,3.07
2023-02-19T07:30:36.244Z,3.17
2023-02-19T07:35:36.175Z,3.19
2023-02-19T07:40:36.136Z,3.16
2023-02-19T07:45:36.120Z,3.35
2023-02-19T07:50:36.043Z,3.35
2023-02-19T07:55:35.995Z,3.34
2023-02-19T08:00:35.951Z,3.39
2023-02-19T08:05:35.900Z,3.50
2023-02-19T08:10:35.859Z,3.42
2023-02-19T08:15:35.855Z,3.53
2023-02-19T08:20:35.806Z,3.77
2023-02-19T08:25:35.749Z,3.70
2023-02-19T08:30:35.783Z,3.64
2023-02-19T08:35:35.691Z,3.70
2023-02-19T08:40:35.655Z,3.89
2023-02-19T08:45:35.620Z,3.78
2023-02-19T08:50:35.580Z,3.99
2023-02-19T08:55:35.591Z,4.38
2023-02-19T09:00:35.546Z,4.54
2023-02-19T09:05:35.522Z,4.75
2023-02-19T09:10:35.509Z,4.77
2023-02-19T09:15:35.515Z,4.94
2023-02-19T09:20:35.455Z,5.02
2023-02-19T09:25:35.443Z,5.14
2023-02-19T09:30:35.400Z,5.01
2023-02-19T09:35:35.365Z,4.96
2023-02-19T09:40:35.349Z,5.09
2023-02-19T09:45:35.318Z,5.14
2023-02-19T09:50:35.305Z,4.72
2023-02-19T09:55:35.276Z,4.87
2023-02-19T10:00:35.248Z,5.17
2023-02-19T10:05:35.211Z,5.01
2023-02-19T10:10:35.202Z,5.62
2023-02-19T10:15:35.156Z,5.37
2023-02-19T10:20:35.116Z,5.23
2023-02-19T10:25:35.075Z,5.24
2023-02-19T10:30:35.107Z,5.32
2023-02-19T10:35:34.993Z,5.47
2023-02-19T10:40:34.961Z,5.40
2023-02-19T10:45:34.912Z,5.44
2023-02-19T10:50:34.879Z,5.51
2023-02-19T10:55:37.510Z,5.63
2023-02-19T11:00:34.836Z,5.42
2023-02-19T11:05:34.785Z,5.84
2023-02-19T11:10:34.747Z,6.17
2023-02-19T11:15:34.709Z,6.06
2023-02-19T11:20:34.663Z,6.48
2023-02-19T11:25:34.636Z,6.53
2023-02-19T11:30:36.369Z,6.36
2023-02-19T11:35:34.586Z,6.02
2023-02-19T11:40:34.558Z,6.39
2023-02-19T11:45:34.505Z,6.16
2023-02-19T11:50:34.483Z,6.58
2023-02-19T11:55:34.439Z,6.90
2023-02-19T12:00:34.397Z,6.69
2023-02-19T12:05:34.344Z,7.77
2023-02-19T12:10:34.318Z,7.96
2023-02-19T12:15:34.259Z,8.34
2023-02-19T12:20:34.222Z,8.00
2023-02-19T12:25:34.846Z,7.79
2023-02-19T12:30:34.231Z,7.62
2023-02-19T12:35:34.171Z,7.41
2023-02-19T12:40:34.180Z,7.58
2023-02-19T12:45:34.194Z,7.73
2023-02-19T12:50:34.096Z,8.22
2023-02-19T12:55:34.072Z,8.57
2023-02-19T13:00:34.046Z,8.65
2023-02-19T13:05:33.999Z,7.85
2023-02-19T13:10:34.316Z,7.21
2023-02-19T13:15:33.955Z,6.82
2023-02-19T13:20:34.016Z,7.00
2023-02-19T13:25:33.897Z,6.97
2023-02-19T13:30:33.948Z,7.18
2023-02-19T13:35:33.799Z,7.14
2023-02-19T13:40:33.797Z,7.26
2023-02-19T13:45:33.755Z,7.36
2023-02-19T13:50:33.692Z,7.36
2023-02-19T13:55:33.694Z,7.33
2023-02-19T14:00:33.619Z,7.27
2023-02-19T14:05:33.613Z,7.37
2023-02-19T14:10:35.317Z,7.27
2023-02-19T14:15:33.654Z,7.26
2023-02-19T14:20:33.539Z,7.52
2023-02-19T14:25:33.497Z,7.51
2023-02-19T14:30:33.656Z,7.39
2023-02-19T14:35:33.453Z,7.30
2023-02-19T14:40:33.428Z,7.19
2023-02-19T14:45:33.381Z,6.96
2023-02-19T14:50:33.388Z,6.86
2023-02-19T14:55:33.337Z,6.57
2023-02-19T15:00:33.290Z,6.42
2023-02-19T15:05:33.252Z,6.30
2023-02-19T15:10:33.249Z,6.21
2023-02-19T15:15:33.300Z,6.17
2023-02-19T15:20:33.170Z,6.16
2023-02-19T15:25:33.133Z,6.16
2023-02-19T15:30:33.166Z,6.02
2023-02-19T15:35:33.078Z,5.90
2023-02-19T15:40:33.037Z,5.85
2023-02-19T15:45:32.988Z,5.78
2023-02-19T15:50:32.942Z,5.77
2023-02-19T15:55:32.948Z,5.70
2023-02-19T16:00:32.966Z,5.65
2023-02-19T16:05:32.871Z,5.56
2023-02-19T16:10:32.783Z,5.47
2023-02-19T16:15:32.754Z,5.38
2023-02-19T16:20:32.711Z,5.19
2023-02-19T16:25:32.771Z,5.04
2023-02-19T16:30:32.711Z,4.93
2023-02-19T16:35:32.606Z,4.80
2023-02-19T16:40:32.746Z,4.71
2023-02-19T16:45:32.791Z,4.50
2023-02-19T16:50:32.682Z,4.26
2023-02-19T16:55:32.557Z,4.00
2023-02-19T17:00:32.512Z,3.82
2023-02-19T17:05:32.486Z,3.64
2023-02-19T17:10:32.462Z,3.41
2023-02-19T17:15:32.424Z,3.26
2023-02-19T17:20:32.387Z,3.10
2023-02-19T17:25:32.367Z,2.80
2023-02-19T17:30:32.368Z,2.63
2023-02-19T17:35:32.400Z,2.51
2023-02-19T17:40:33.830Z,2.36
2023-02-19T17:45:32.451Z,2.27
2023-02-19T17:50:32.264Z,2.23
2023-02-19T17:55:32.253Z,2.18
2023-02-19T18:00:32.154Z,2.11
2023-02-19T18:05:32.147Z,2.14
2023-02-19T18:10:32.116Z,2.01
2023-02-19T18:15:32.074Z,1.79
2023-02-19T18:20:32.112Z,1.63
2023-02-19T18:25:32.020Z,1.56
2023-02-19T18:30:32.210Z,1.61
2023-02-19T18:35:34.827Z,1.53
2023-02-19T18:40:32.040Z,1.52
2023-02-19T18:45:31.918Z,1.54
2023-02-19T18:50:31.895Z,1.64
2023-02-19T18:55:31.852Z,1.63
2023-02-19T19:00:31.928Z,1.57
2023-02-19T19:05:31.817Z,1.65
2023-02-19T19:10:31.778Z,1.71
2023-02-19T19:15:31.972Z,1.77
2023-02-19T19:20:31.907Z,1.86
2023-02-19T19:25:32.848Z,1.93
2023-02-19T19:30:32.043Z,1.86
2023-02-19T19:35:31.773Z,1.90
2023-02-19T19:40:32.702Z,1.89
2023-02-19T19:45:31.683Z,1.77
2023-02-19T19:50:31.599Z,1.68
2023-02-19T19:55:34.568Z,1.63
2023-02-19T20:00:32.045Z,1.57
2023-02-19T20:05:31.530Z,1.63
2023-02-19T20:10:31.565Z,1.68
2023-02-19T20:15:31.468Z,1.71
2023-02-19T20:20:32.106Z,1.79
2023-02-19T20:25:31.369Z,1.77
2023-02-19T20:30:31.360Z,1.74
2023-02-19T20:35:31.319Z,1.72
2023-02-19T20:40:32.468Z,1.68
2023-02-19T20:45:31.302Z,1.61
2023-02-19T20:50:31.241Z,1.52
2023-02-19T20:55:31.253Z,1.49
2023-02-19T21:00:31.169Z,1.42
2023-02-19T21:05:31.161Z,1.35
2023-02-19T21:10:31.140Z,1.35
2023-02-19T21:15:31.115Z,1.38
2023-02-19T21:20:31.106Z,1.34
2023-02-19T21:25:31.062Z,1.29
2023-02-19T21:30:31.068Z,1.38
2023-02-19T21:35:31.028Z,1.50
2023-02-19T21:40:31.002Z,1.54
2023-02-19T21:45:31.019Z,1.60
2023-02-19T21:50:30.966Z,1.56
2023-02-19T21:55:30.948Z,1.61
2023-02-19T22:00:30.960Z,1.70
2023-02-19T22:05:30.917Z,1.68
2023-02-19T22:10:30.890Z,1.70
2023-02-19T22:15:30.841Z,1.83
2023-02-19T22:20:30.833Z,1.95
2023-02-19T22:25:30.810Z,2.04
2023-02-19T22:30:30.833Z,2.11
2023-02-19T22:35:30.741Z,2.18
2023-02-19T22:40:30.738Z,2.22
2023-02-19T22:45:30.733Z,2.19
2023-02-19T22:50:30.700Z,2.11
2023-02-19T22:55:30.684Z,1.98
2023-02-19T23:00:30.662Z,1.90
2023-02-19T23:05:30.646Z,1.85
2023-02-19T23:10:30.620Z,1.79
2023-02-19T23:15:30.587Z,1.79
2023-02-19T23:20:30.564Z,1.72
2023-02-19T23:25:30.548Z,1.65
2023-02-19T23:30:30.613Z,1.68
2023-02-19T23:35:30.490Z,1.70
2023-02-19T23:40:30.477Z,1.71
2023-02-19T23:45:30.454Z,1.67
2023-02-19T23:50:30.440Z,1.64
2023-02-19T23:55:30.438Z,1.54
